sensor_id;sensor_type;location;lat;lon;timestamp;pressure;altitude;pressure_sealevel;temperature;humidity
13836;BME280;6988;52.614;13.500;2023-02-12T00:02:53;54692.97;;;-143.77;93.32
13836;BME280;6988;52.614;13.500;2023-02-12T00:07:45;54707.31;;;-143.77;93.21
13836;BME280;6988;52.614;13.500;2023-02-12T00:12:37;54742.22;;;-143.77;93.00
13836;BME280;6988;52.614;13.500;2023-02-12T00:17:29;54711.44;;;-143.77;92.73
13836;BME280;6988;52.614;13.500;2023-02-12T00:22:22;54699.13;;;-143.77;93.27
13836;BME280;6988;52.614;13.500;2023-02-12T00:27:14;54725.78;;;-143.77;93.50
13836;BME280;6988;52.614;13.500;2023-02-12T00:32:06;54723.75;;;-143.77;92.82
13836;BME280;6988;52.614;13.500;2023-02-12T00:36:58;54703.22;;;-143.77;93.06
13836;BME280;6988;52.614;13.500;2023-02-12T00:41:52;54697.06;;;-143.77;92.57
13836;BME280;6988;52.614;13.500;2023-02-12T00:46:43;54713.47;;;-143.77;92.88
13836;BME280;6988;52.614;13.500;2023-02-12T00:51:35;54699.13;;;-143.77;92.69
13836;BME280;6988;52.614;13.500;2023-02-12T00:56:27;54748.38;;;-143.77;92.42
13836;BME280;6988;52.614;13.500;2023-02-12T01:01:20;54711.44;;;-143.77;92.69
13836;BME280;6988;52.614;13.500;2023-02-12T01:06:12;54713.47;;;-143.77;92.82
13836;BME280;6988;52.614;13.500;2023-02-12T01:11:05;54721.69;;;-143.77;92.24
13836;BME280;6988;52.614;13.500;2023-02-12T01:16:04;54725.78;;;-143.77;92.62
13836;BME280;6988;52.614;13.500;2023-02-12T01:21:00;54758.63;;;-143.77;92.67
13836;BME280;6988;52.614;13.500;2023-02-12T01:25:52;54734.00;;;-143.77;92.64
13836;BME280;6988;52.614;13.500;2023-02-12T01:30:45;54756.56;;;-143.77;92.54
13836;BME280;6988;52.614;13.500;2023-02-12T01:35:37;54740.16;;;-143.77;92.89
13836;BME280;6988;52.614;13.500;2023-02-12T01:40:31;54758.63;;;-143.77;92.75
13836;BME280;6988;52.614;13.500;2023-02-12T01:45:44;54725.78;;;-143.77;92.69
13836;BME280;6988;52.614;13.500;2023-02-12T01:50:37;54709.38;;;-143.77;92.87
13836;BME280;6988;52.614;13.500;2023-02-12T01:55:31;54715.53;;;-143.77;93.20
13836;BME280;6988;52.614;13.500;2023-02-12T02:00:24;54754.53;;;-143.77;93.37
13836;BME280;6988;52.614;13.500;2023-02-12T02:05:24;54742.22;;;-143.77;93.06
13836;BME280;6988;52.614;13.500;2023-02-12T02:10:19;54707.31;;;-143.77;93.29
13836;BME280;6988;52.614;13.500;2023-02-12T02:15:12;54725.78;;;-143.77;92.79
13836;BME280;6988;52.614;13.500;2023-02-12T02:20:58;54729.91;;;-143.77;92.34
13836;BME280;6988;52.614;13.500;2023-02-12T02:26:33;54729.91;;;-143.77;92.65
13836;BME280;6988;52.614;13.500;2023-02-12T02:31:40;54746.31;;;-143.77;91.89
13836;BME280;6988;52.614;13.500;2023-02-12T02:36:40;54742.22;;;-143.77;92.24
13836;BME280;6988;52.614;13.500;2023-02-12T02:41:43;54729.91;;;-143.77;92.30
13836;BME280;6988;52.614;13.500;2023-02-12T02:46:44;54707.31;;;-143.77;92.06
13836;BME280;6988;52.614;13.500;2023-02-12T02:51:42;54748.38;;;-143.77;91.81
13836;BME280;6988;52.614;13.500;2023-02-12T02:56:40;54709.38;;;-143.77;92.41
13836;BME280;6988;52.614;13.500;2023-02-12T03:01:40;54719.63;;;-143.77;92.24
13836;BME280;6988;52.614;13.500;2023-02-12T03:06:41;54729.91;;;-143.77;91.95
13836;BME280;6988;52.614;13.500;2023-02-12T03:11:37;54729.91;;;-143.77;92.08
13836;BME280;6988;52.614;13.500;2023-02-12T03:16:33;54727.84;;;-143.77;92.45
13836;BME280;6988;52.614;13.500;2023-02-12T03:21:32;54762.72;;;-143.77;91.67
13836;BME280;6988;52.614;13.500;2023-02-12T03:26:31;54723.75;;;-143.77;92.69
13836;BME280;6988;52.614;13.500;2023-02-12T03:31:36;54729.91;;;-143.77;91.79
13836;BME280;6988;52.614;13.500;2023-02-12T03:36:38;54768.88;;;-143.77;92.31
13836;BME280;6988;52.614;13.500;2023-02-12T03:41:41;54742.22;;;-143.77;92.49
13836;BME280;6988;52.614;13.500;2023-02-12T03:46:42;54731.94;;;-143.77;92.17
13836;BME280;6988;52.614;13.500;2023-02-12T03:51:39;54715.53;;;-143.77;91.88
13836;BME280;6988;52.614;13.500;2023-02-12T03:56:38;54746.31;;;-143.77;92.24
13836;BME280;6988;52.614;13.500;2023-02-12T04:01:34;54779.16;;;-143.77;92.77
13836;BME280;6988;52.614;13.500;2023-02-12T04:06:27;54729.91;;;-143.77;92.23
13836;BME280;6988;52.614;13.500;2023-02-12T04:11:30;54721.69;;;-143.77;92.19
13836;BME280;6988;52.614;13.500;2023-02-12T04:16:32;54758.63;;;-143.77;92.16
13836;BME280;6988;52.614;13.500;2023-02-12T04:21:43;54762.72;;;-143.77;92.43
13836;BME280;6988;52.614;13.500;2023-02-12T04:26:51;54762.72;;;-143.77;92.69
13836;BME280;6988;52.614;13.500;2023-02-12T04:31:50;54787.34;;;-143.77;92.64
13836;BME280;6988;52.614;13.500;2023-02-12T04:36:50;54758.63;;;-143.77;92.83
13836;BME280;6988;52.614;13.500;2023-02-12T04:41:46;54760.69;;;-143.77;92.70
13836;BME280;6988;52.614;13.500;2023-02-12T04:46:38;54731.94;;;-143.77;92.85
13836;BME280;6988;52.614;13.500;2023-02-12T04:51:29;54775.03;;;-143.77;92.97
13836;BME280;6988;52.614;13.500;2023-02-12T04:56:21;54752.47;;;-143.77;92.63
13836;BME280;6988;52.614;13.500;2023-02-12T05:01:14;54766.84;;;-143.77;92.91
13836;BME280;6988;52.614;13.500;2023-02-12T05:06:08;54762.72;;;-143.77;92.85
13836;BME280;6988;52.614;13.500;2023-02-12T05:11:04;54762.72;;;-143.77;92.63
13836;BME280;6988;52.614;13.500;2023-02-12T05:15:56;54768.88;;;-143.77;92.38
13836;BME280;6988;52.614;13.500;2023-02-12T05:20:55;54773.00;;;-143.77;92.49
13836;BME280;6988;52.614;13.500;2023-02-12T05:25:47;54789.41;;;-143.77;92.51
13836;BME280;6988;52.614;13.500;2023-02-12T05:30:39;54799.66;;;-143.77;92.43
13836;BME280;6988;52.614;13.500;2023-02-12T05:35:33;54742.22;;;-143.77;92.44
13836;BME280;6988;52.614;13.500;2023-02-12T05:40:27;54789.41;;;-143.77;92.13
13836;BME280;6988;52.614;13.500;2023-02-12T05:45:18;54781.19;;;-143.77;92.49
13836;BME280;6988;52.614;13.500;2023-02-12T05:50:10;54754.53;;;-143.77;92.28
13836;BME280;6988;52.614;13.500;2023-02-12T05:55:02;54746.31;;;-143.77;92.51
13836;BME280;6988;52.614;13.500;2023-02-12T05:59:55;54779.16;;;-143.77;92.83
13836;BME280;6988;52.614;13.500;2023-02-12T06:04:49;54779.16;;;-143.77;92.51
13836;BME280;6988;52.614;13.500;2023-02-12T06:09:41;54773.00;;;-143.77;92.40
13836;BME280;6988;52.614;13.500;2023-02-12T06:14:33;54770.94;;;-143.77;91.97
13836;BME280;6988;52.614;13.500;2023-02-12T06:19:26;54781.19;;;-143.77;92.28
13836;BME280;6988;52.614;13.500;2023-02-12T06:24:18;54738.09;;;-143.77;92.87
13836;BME280;6988;52.614;13.500;2023-02-12T06:29:10;54801.72;;;-143.77;92.69
13836;BME280;6988;52.614;13.500;2023-02-12T06:34:06;54762.72;;;-143.77;92.54
13836;BME280;6988;52.614;13.500;2023-02-12T06:39:01;54744.25;;;-143.77;92.86
13836;BME280;6988;52.614;13.500;2023-02-12T06:43:53;54740.16;;;-143.77;92.64
13836;BME280;6988;52.614;13.500;2023-02-12T06:48:44;54752.47;;;-143.77;92.86
13836;BME280;6988;52.614;13.500;2023-02-12T06:53:37;54742.22;;;-143.77;93.49
13836;BME280;6988;52.614;13.500;2023-02-12T06:58:31;54770.94;;;-143.77;93.26
13836;BME280;6988;52.614;13.500;2023-02-12T07:03:23;54766.84;;;-143.77;93.56
13836;BME280;6988;52.614;13.500;2023-02-12T07:08:15;54725.78;;;-143.77;92.75
13836;BME280;6988;52.614;13.500;2023-02-12T07:13:06;54744.25;;;-143.77;92.71
13836;BME280;6988;52.614;13.500;2023-02-12T07:17:59;54734.00;;;-143.77;92.93
13836;BME280;6988;52.614;13.500;2023-02-12T07:27:52;54738.09;;;-143.77;92.61
13836;BME280;6988;52.614;13.500;2023-02-12T07:32:44;54742.22;;;-143.77;93.10
13836;BME280;6988;52.614;13.500;2023-02-12T07:37:37;54734.00;;;-143.77;92.75
13836;BME280;6988;52.614;13.500;2023-02-12T07:42:29;54727.84;;;-143.77;92.43
13836;BME280;6988;52.614;13.500;2023-02-12T07:47:21;54758.63;;;-143.77;92.54
13836;BME280;6988;52.614;13.500;2023-02-12T07:52:13;54736.06;;;-143.77;92.73
13836;BME280;6988;52.614;13.500;2023-02-12T07:57:06;54748.38;;;-143.77;92.95
13836;BME280;6988;52.614;13.500;2023-02-12T08:01:58;54742.22;;;-143.77;92.82
13836;BME280;6988;52.614;13.500;2023-02-12T08:06:53;54742.22;;;-143.77;91.97
13836;BME280;6988;52.614;13.500;2023-02-12T08:11:46;54754.53;;;-143.77;91.93
13836;BME280;6988;52.614;13.500;2023-02-12T08:16:41;54725.78;;;-143.77;91.58
13836;BME280;6988;52.614;13.500;2023-02-12T08:21:34;54742.22;;;-143.77;91.73
13836;BME280;6988;52.614;13.500;2023-02-12T08:26:30;54742.22;;;-143.77;91.62
13836;BME280;6988;52.614;13.500;2023-02-12T08:31:24;54738.09;;;-143.77;90.73
13836;BME280;6988;52.614;13.500;2023-02-12T08:36:20;54705.28;;;-143.77;90.26
13836;BME280;6988;52.614;13.500;2023-02-12T08:41:16;54752.47;;;-143.77;89.96
13836;BME280;6988;52.614;13.500;2023-02-12T08:46:11;54717.59;;;-143.77;89.52
13836;BME280;6988;52.614;13.500;2023-02-12T08:51:07;54707.31;;;-143.77;89.09
13836;BME280;6988;52.614;13.500;2023-02-12T08:56:01;54686.81;;;-143.77;88.82
13836;BME280;6988;52.614;13.500;2023-02-12T09:00:53;54721.69;;;-143.77;87.60
13836;BME280;6988;52.614;13.500;2023-02-12T09:05:45;54701.16;;;-143.77;87.35
13836;BME280;6988;52.614;13.500;2023-02-12T09:10:38;54746.31;;;-143.77;86.86
13836;BME280;6988;52.614;13.500;2023-02-12T09:15:36;54719.63;;;-143.77;87.05
13836;BME280;6988;52.614;13.500;2023-02-12T09:20:28;54723.75;;;-143.77;87.43
13836;BME280;6988;52.614;13.500;2023-02-12T09:25:19;54697.06;;;-143.77;87.23
13836;BME280;6988;52.614;13.500;2023-02-12T09:30:12;54699.13;;;-143.77;87.06
13836;BME280;6988;52.614;13.500;2023-02-12T09:35:06;54670.38;;;-143.77;87.34
13836;BME280;6988;52.614;13.500;2023-02-12T09:39:58;54680.66;;;-143.77;86.82
13836;BME280;6988;52.614;13.500;2023-02-12T09:44:59;54686.81;;;-143.77;85.60
13836;BME280;6988;52.614;13.500;2023-02-12T09:50:16;54684.75;;;-143.77;85.33
13836;BME280;6988;52.614;13.500;2023-02-12T09:55:15;54692.97;;;-143.77;85.03
13836;BME280;6988;52.614;13.500;2023-02-12T10:00:14;54680.66;;;-143.77;85.00
13836;BME280;6988;52.614;13.500;2023-02-12T10:05:19;54680.66;;;-143.77;84.52
13836;BME280;6988;52.614;13.500;2023-02-12T10:10:31;54703.22;;;-143.77;84.57
13836;BME280;6988;52.614;13.500;2023-02-12T10:15:37;54629.34;;;-143.77;85.02
13836;BME280;6988;52.614;13.500;2023-02-12T10:20:59;54684.75;;;-143.77;84.94
13836;BME280;6988;52.614;13.500;2023-02-12T10:25:57;54682.69;;;-143.77;85.46
13836;BME280;6988;52.614;13.500;2023-02-12T10:30:54;54660.13;;;-143.77;85.57
13836;BME280;6988;52.614;13.500;2023-02-12T10:35:54;54672.44;;;-143.77;86.27
13836;BME280;6988;52.614;13.500;2023-02-12T10:40:47;54664.22;;;-143.77;86.67
13836;BME280;6988;52.614;13.500;2023-02-12T10:45:42;54643.72;;;-143.77;86.91
13836;BME280;6988;52.614;13.500;2023-02-12T10:50:56;54668.34;;;-143.77;86.20
13836;BME280;6988;52.614;13.500;2023-02-12T10:56:13;54678.59;;;-143.77;86.33
13836;BME280;6988;52.614;13.500;2023-02-12T11:01:16;54647.81;;;-143.77;86.27
13836;BME280;6988;52.614;13.500;2023-02-12T11:06:17;54637.56;;;-143.77;86.09
13836;BME280;6988;52.614;13.500;2023-02-12T11:11:13;54680.66;;;-143.77;86.42
13836;BME280;6988;52.614;13.500;2023-02-12T11:16:07;54684.75;;;-143.77;87.25
13836;BME280;6988;52.614;13.500;2023-02-12T11:21:03;54658.06;;;-143.77;87.32
13836;BME280;6988;52.614;13.500;2023-02-12T11:26:00;54658.06;;;-143.77;87.13
13836;BME280;6988;52.614;13.500;2023-02-12T11:30:56;54684.75;;;-143.77;87.70
13836;BME280;6988;52.614;13.500;2023-02-12T11:35:52;54660.13;;;-143.77;87.44
13836;BME280;6988;52.614;13.500;2023-02-12T11:40:46;54672.44;;;-143.77;87.21
13836;BME280;6988;52.614;13.500;2023-02-12T11:45:45;54692.97;;;-143.77;87.80
13836;BME280;6988;52.614;13.500;2023-02-12T11:50:46;54676.53;;;-143.77;87.76
13836;BME280;6988;52.614;13.500;2023-02-12T11:55:40;54658.06;;;-143.77;87.47
13836;BME280;6988;52.614;13.500;2023-02-12T12:00:37;54674.50;;;-143.77;87.54
13836;BME280;6988;52.614;13.500;2023-02-12T12:05:43;54682.69;;;-143.77;87.76
13836;BME280;6988;52.614;13.500;2023-02-12T12:10:46;54647.81;;;-143.77;86.86
13836;BME280;6988;52.614;13.500;2023-02-12T12:15:45;54651.91;;;-143.77;86.56
13836;BME280;6988;52.614;13.500;2023-02-12T12:21:07;54647.81;;;-143.77;85.66
13836;BME280;6988;52.614;13.500;2023-02-12T12:26:05;54639.59;;;-143.77;85.40
13836;BME280;6988;52.614;13.500;2023-02-12T12:31:08;54633.44;;;-143.77;84.39
13836;BME280;6988;52.614;13.500;2023-02-12T12:36:39;54608.81;;;-143.77;82.97
13836;BME280;6988;52.614;13.500;2023-02-12T12:41:50;54596.50;;;-143.77;80.47
13836;BME280;6988;52.614;13.500;2023-02-12T12:46:59;54606.78;;;-143.77;80.58
13836;BME280;6988;52.614;13.500;2023-02-12T12:52:28;54606.78;;;-143.77;79.77
13836;BME280;6988;52.614;13.500;2023-02-12T12:57:45;54641.66;;;-143.77;79.91
13836;BME280;6988;52.614;13.500;2023-02-12T13:03:24;54633.44;;;-143.77;79.38
13836;BME280;6988;52.614;13.500;2023-02-12T13:08:38;54635.50;;;-143.77;77.90
13836;BME280;6988;52.614;13.500;2023-02-12T13:13:40;54580.09;;;-143.77;77.46
13836;BME280;6988;52.614;13.500;2023-02-12T13:18:48;54647.81;;;-143.77;77.98
13836;BME280;6988;52.614;13.500;2023-02-12T13:23:52;54590.34;;;-143.77;78.46
13836;BME280;6988;52.614;13.500;2023-02-12T13:28:52;54623.19;;;-143.77;77.99
13836;BME280;6988;52.614;13.500;2023-02-12T13:33:49;54625.25;;;-143.77;78.25
13836;BME280;6988;52.614;13.500;2023-02-12T13:38:49;54617.03;;;-143.77;78.19
13836;BME280;6988;52.614;13.500;2023-02-12T13:44:00;54653.97;;;-143.77;76.92
13836;BME280;6988;52.614;13.500;2023-02-12T13:49:09;54623.19;;;-143.77;77.24
13836;BME280;6988;52.614;13.500;2023-02-12T13:54:21;54623.19;;;-143.77;77.25
13836;BME280;6988;52.614;13.500;2023-02-12T13:59:48;54606.78;;;-143.77;77.56
13836;BME280;6988;52.614;13.500;2023-02-12T14:04:46;54633.44;;;-143.77;78.07
13836;BME280;6988;52.614;13.500;2023-02-12T14:09:43;54590.34;;;-143.77;77.79
13836;BME280;6988;52.614;13.500;2023-02-12T14:14:40;54608.81;;;-143.77;76.05
13836;BME280;6988;52.614;13.500;2023-02-12T14:19:53;54651.91;;;-143.77;75.13
13836;BME280;6988;52.614;13.500;2023-02-12T14:24:50;54594.47;;;-143.77;75.51
13836;BME280;6988;52.614;13.500;2023-02-12T14:30:24;54621.13;;;-143.77;74.77
13836;BME280;6988;52.614;13.500;2023-02-12T14:35:34;54612.94;;;-143.77;74.90
13836;BME280;6988;52.614;13.500;2023-02-12T14:40:46;54627.28;;;-143.77;75.45
13836;BME280;6988;52.614;13.500;2023-02-12T14:45:38;54635.50;;;-143.77;74.88
13836;BME280;6988;52.614;13.500;2023-02-12T14:50:40;54612.94;;;-143.77;75.40
13836;BME280;6988;52.614;13.500;2023-02-12T14:55:40;54649.88;;;-143.77;75.76
13836;BME280;6988;52.614;13.500;2023-02-12T15:00:40;54643.72;;;-143.77;76.17
13836;BME280;6988;52.614;13.500;2023-02-12T15:05:40;54623.19;;;-143.77;76.58
13836;BME280;6988;52.614;13.500;2023-02-12T15:10:38;54643.72;;;-143.77;77.06
13836;BME280;6988;52.614;13.500;2023-02-12T15:15:34;54631.41;;;-143.77;76.51
13836;BME280;6988;52.614;13.500;2023-02-12T15:20:38;54617.03;;;-143.77;75.91
13836;BME280;6988;52.614;13.500;2023-02-12T15:25:35;54641.66;;;-143.77;76.19
13836;BME280;6988;52.614;13.500;2023-02-12T15:30:31;54651.91;;;-143.77;76.82
13836;BME280;6988;52.614;13.500;2023-02-12T15:35:27;54627.28;;;-143.77;76.76
13836;BME280;6988;52.614;13.500;2023-02-12T15:40:21;54633.44;;;-143.77;76.80
13836;BME280;6988;52.614;13.500;2023-02-12T15:45:21;54631.41;;;-143.77;77.01
13836;BME280;6988;52.614;13.500;2023-02-12T15:50:16;54637.56;;;-143.77;77.42
13836;BME280;6988;52.614;13.500;2023-02-12T15:55:15;54651.91;;;-143.77;77.76
13836;BME280;6988;52.614;13.500;2023-02-12T16:00:27;54682.69;;;-143.77;78.27
13836;BME280;6988;52.614;13.500;2023-02-12T16:05:21;54662.19;;;-143.77;78.67
13836;BME280;6988;52.614;13.500;2023-02-12T16:10:15;54668.34;;;-143.77;78.66
13836;BME280;6988;52.614;13.500;2023-02-12T16:15:27;54627.28;;;-143.77;78.98
13836;BME280;6988;52.614;13.500;2023-02-12T16:20:23;54676.53;;;-143.77;78.97
13836;BME280;6988;52.614;13.500;2023-02-12T16:25:21;54656.03;;;-143.77;79.03
13836;BME280;6988;52.614;13.500;2023-02-12T16:30:27;54707.31;;;-143.77;79.27
13836;BME280;6988;52.614;13.500;2023-02-12T16:35:28;54651.91;;;-143.77;79.40
13836;BME280;6988;52.614;13.500;2023-02-12T16:40:26;54629.34;;;-143.77;79.71
13836;BME280;6988;52.614;13.500;2023-02-12T16:45:34;54697.06;;;-143.77;79.75
13836;BME280;6988;52.614;13.500;2023-02-12T16:50:27;54668.34;;;-143.77;79.30
13836;BME280;6988;52.614;13.500;2023-02-12T16:55:20;54674.50;;;-143.77;79.46
13836;BME280;6988;52.614;13.500;2023-02-12T17:00:16;54676.53;;;-143.77;79.83
13836;BME280;6988;52.614;13.500;2023-02-12T17:05:10;54672.44;;;-143.77;80.31
13836;BME280;6988;52.614;13.500;2023-02-12T17:10:03;54688.84;;;-143.77;80.61
13836;BME280;6988;52.614;13.500;2023-02-12T17:14:54;54684.75;;;-143.77;81.18
13836;BME280;6988;52.614;13.500;2023-02-12T17:19:46;54709.38;;;-143.77;81.53
13836;BME280;6988;52.614;13.500;2023-02-12T17:24:39;54703.22;;;-143.77;81.48
13836;BME280;6988;52.614;13.500;2023-02-12T17:29:31;54703.22;;;-143.77;81.77
13836;BME280;6988;52.614;13.500;2023-02-12T17:34:24;54697.06;;;-143.77;81.77
13836;BME280;6988;52.614;13.500;2023-02-12T17:39:16;54688.84;;;-143.77;81.75
13836;BME280;6988;52.614;13.500;2023-02-12T17:44:10;54707.31;;;-143.77;82.20
13836;BME280;6988;52.614;13.500;2023-02-12T17:49:04;54688.84;;;-143.77;82.34
13836;BME280;6988;52.614;13.500;2023-02-12T17:53:56;54678.59;;;-143.77;82.72
13836;BME280;6988;52.614;13.500;2023-02-12T17:58:48;54729.91;;;-143.77;83.31
13836;BME280;6988;52.614;13.500;2023-02-12T18:03:42;54697.06;;;-143.77;83.46
13836;BME280;6988;52.614;13.500;2023-02-12T18:08:34;54668.34;;;-143.77;83.26
13836;BME280;6988;52.614;13.500;2023-02-12T18:13:26;54697.06;;;-143.77;83.21
13836;BME280;6988;52.614;13.500;2023-02-12T18:18:18;54688.84;;;-143.77;83.44
13836;BME280;6988;52.614;13.500;2023-02-12T18:23:11;54692.97;;;-143.77;83.90
13836;BME280;6988;52.614;13.500;2023-02-12T18:28:03;54692.97;;;-143.77;84.69
13836;BME280;6988;52.614;13.500;2023-02-12T18:32:56;54734.00;;;-143.77;85.62
13836;BME280;6988;52.614;13.500;2023-02-12T18:37:48;54783.25;;;-143.77;86.08
13836;BME280;6988;52.614;13.500;2023-02-12T18:42:41;54697.06;;;-143.77;87.03
13836;BME280;6988;52.614;13.500;2023-02-12T18:47:33;54725.78;;;-143.77;87.37
13836;BME280;6988;52.614;13.500;2023-02-12T18:52:25;54686.81;;;-143.77;88.18
13836;BME280;6988;52.614;13.500;2023-02-12T18:57:17;54715.53;;;-143.77;88.41
13836;BME280;6988;52.614;13.500;2023-02-12T19:02:12;54725.78;;;-143.77;88.89
13836;BME280;6988;52.614;13.500;2023-02-12T19:07:04;54717.59;;;-143.77;88.90
13836;BME280;6988;52.614;13.500;2023-02-12T19:11:58;54736.06;;;-143.77;89.50
13836;BME280;6988;52.614;13.500;2023-02-12T19:16:51;54672.44;;;-143.77;89.67
13836;BME280;6988;52.614;13.500;2023-02-12T19:21:45;54729.91;;;-143.77;89.77
13836;BME280;6988;52.614;13.500;2023-02-12T19:26:39;54729.91;;;-143.77;90.16
13836;BME280;6988;52.614;13.500;2023-02-12T19:31:33;54731.94;;;-143.77;90.52
13836;BME280;6988;52.614;13.500;2023-02-12T19:36:28;54729.91;;;-143.77;90.73
13836;BME280;6988;52.614;13.500;2023-02-12T19:41:25;54731.94;;;-143.77;90.97
13836;BME280;6988;52.614;13.500;2023-02-12T19:46:18;54707.31;;;-143.77;91.02
13836;BME280;6988;52.614;13.500;2023-02-12T19:51:12;54715.53;;;-143.77;91.49
13836;BME280;6988;52.614;13.500;2023-02-12T19:56:05;54723.75;;;-143.77;91.75
13836;BME280;6988;52.614;13.500;2023-02-12T20:00:59;54744.25;;;-143.77;92.04
13836;BME280;6988;52.614;13.500;2023-02-12T20:05:59;54707.31;;;-143.77;92.32
13836;BME280;6988;52.614;13.500;2023-02-12T20:10:51;54703.22;;;-143.77;92.69
13836;BME280;6988;52.614;13.500;2023-02-12T20:15:43;54705.28;;;-143.77;93.05
13836;BME280;6988;52.614;13.500;2023-02-12T20:20:38;54746.31;;;-143.77;93.27
13836;BME280;6988;52.614;13.500;2023-02-12T20:25:30;54717.59;;;-143.77;93.26
13836;BME280;6988;52.614;13.500;2023-02-12T20:30:23;54734.00;;;-143.77;93.49
13836;BME280;6988;52.614;13.500;2023-02-12T20:35:15;54715.53;;;-143.77;93.56
13836;BME280;6988;52.614;13.500;2023-02-12T20:40:09;54736.06;;;-143.77;93.51
13836;BME280;6988;52.614;13.500;2023-02-12T20:45:01;54711.44;;;-143.77;93.59
13836;BME280;6988;52.614;13.500;2023-02-12T20:49:53;54731.94;;;-143.77;93.58
13836;BME280;6988;52.614;13.500;2023-02-12T20:54:45;54680.66;;;-143.77;93.50
13836;BME280;6988;52.614;13.500;2023-02-12T20:59:39;54705.28;;;-143.77;94.07
13836;BME280;6988;52.614;13.500;2023-02-12T21:04:31;54705.28;;;-143.77;93.90
13836;BME280;6988;52.614;13.500;2023-02-12T21:09:22;54723.75;;;-143.77;94.05
13836;BME280;6988;52.614;13.500;2023-02-12T21:14:15;54717.59;;;-143.77;93.90
13836;BME280;6988;52.614;13.500;2023-02-12T21:19:10;54711.44;;;-143.77;94.13
13836;BME280;6988;52.614;13.500;2023-02-12T21:24:07;54715.53;;;-143.77;94.09
13836;BME280;6988;52.614;13.500;2023-02-12T21:29:01;54695.00;;;-143.77;94.31
13836;BME280;6988;52.614;13.500;2023-02-12T21:33:57;54738.09;;;-143.77;94.05
13836;BME280;6988;52.614;13.500;2023-02-12T21:38:51;54709.38;;;-143.77;93.95
13836;BME280;6988;52.614;13.500;2023-02-12T21:43:47;54688.84;;;-143.77;94.21
13836;BME280;6988;52.614;13.500;2023-02-12T21:48:39;54709.38;;;-143.77;94.25
13836;BME280;6988;52.614;13.500;2023-02-12T21:53:31;54697.06;;;-143.77;93.98
13836;BME280;6988;52.614;13.500;2023-02-12T21:58:24;54729.91;;;-143.77;94.42
13836;BME280;6988;52.614;13.500;2023-02-12T22:03:16;54713.47;;;-143.77;94.39
13836;BME280;6988;52.614;13.500;2023-02-12T22:08:08;54719.63;;;-143.77;94.44
13836;BME280;6988;52.614;13.500;2023-02-12T22:13:00;54719.63;;;-143.77;94.21
13836;BME280;6988;52.614;13.500;2023-02-12T22:17:53;54686.81;;;-143.77;94.21
13836;BME280;6988;52.614;13.500;2023-02-12T22:22:45;54734.00;;;-143.77;94.29
13836;BME280;6988;52.614;13.500;2023-02-12T22:27:37;54723.75;;;-143.77;94.38
13836;BME280;6988;52.614;13.500;2023-02-12T22:32:29;54701.16;;;-143.77;94.42
13836;BME280;6988;52.614;13.500;2023-02-12T22:37:22;54715.53;;;-143.77;94.67
13836;BME280;6988;52.614;13.500;2023-02-12T22:42:14;54709.38;;;-143.77;94.68
13836;BME280;6988;52.614;13.500;2023-02-12T23:04:20;54715.53;;;-143.77;95.54
13836;BME280;6988;52.614;13.500;2023-02-12T23:09:16;54713.47;;;-143.77;95.94
13836;BME280;6988;52.614;13.500;2023-02-12T23:14:08;54680.66;;;-143.77;96.27
13836;BME280;6988;52.614;13.500;2023-02-12T23:19:01;54672.44;;;-143.77;95.98
13836;BME280;6988;52.614;13.500;2023-02-12T23:23:54;54717.59;;;-143.77;96.12
13836;BME280;6988;52.614;13.500;2023-02-12T23:28:46;54721.69;;;-143.77;96.18
13836;BME280;6988;52.614;13.500;2023-02-12T23:33:38;54684.75;;;-143.77;96.51
13836;BME280;6988;52.614;13.500;2023-02-12T23:38:30;54684.75;;;-143.77;96.59
13836;BME280;6988;52.614;13.500;2023-02-12T23:43:23;54692.97;;;-143.77;96.59
13836;BME280;6988;52.614;13.500;2023-02-12T23:48:15;54715.53;;;-143.77;96.56
13836;BME280;6988;52.614;13.500;2023-02-12T23:53:07;54672.44;;;-143.77;96.57
13836;BME280;6988;52.614;13.500;2023-02-12T23:58:01;54717.59;;;-143.77;96.21
